Big Bear Lake, CA

7:23 AM PST on December 05, 2016 (GMT -0800)
APRSWXNET | | Change Station

Elev 2936 ft 34.44 °N, 117.04 °W | Updated 103 days ago

Partly Cloudy
Partly Cloudy
49 °F
Feels Like 49 °F
N
6
Wind Variable Wind from West
Gusts mph

Today
High -- | Low -- °F
--% Chance of Precip.
Yesterday
High -- | Low -- °F
Precip. -- in
Pressure 30.03 in
Visibility 10.0 miles
Clouds Clear
Dew Point 19 °F
Humidity 31%
Rainfall in
Snow Depth Not available.
6:39 AM 4:37 PM
Waxing Crescent, 32% visible
METAR KL35 051515Z AUTO 23006KT 10SM CLR 06/M09 A3003 RMK AO2
Pressure 30.03 in
Visibility 10.0 miles
Clouds Clear
Dew Point 19 °F
Humidity 31%
Rainfall in
Snow Depth Not available.
6:39 AM 4:37 PM
Waxing Crescent, 32% visible
METAR KL35 051515Z AUTO 23006KT 10SM CLR 06/M09 A3003 RMK AO2

10-Day Weather Forecast

Almanac

Astronomy

Dec. 05, 2016 Rise Set
Actual Time
Civil Twilight
Nautical Twilight
Astronomical Twilight
Moon
Length of Visible Light
Length of Day
Tomorrow will be .
, % of the Moon is Illuminated

Today's Extremes

State Highs State Lows

Community

WunderPhotos

Upload Photos

1,955,789 photos uploaded!

WunderBlog® & News

Nearby

Air Quality

  Air Quality AQ Index Pollutant
Not available.

Snow Depth

Station Depth Elevation

Earthquake Activity

City Distance Mag. Time & Date
Minimum magnitude displayed is 2.5.

Coastal Water Temperatures

Place Temperature

Stations

Nearby Weather Stations

Station Location Temp. Windchill Dew Point Humidity Wind Precip. Elev Updated Type
                   

Watches & Warnings

There are currently no watches in effect.